Time;durP1;ratioP1;P1;durP2;ratioP2;P2;SDS_P1;SDS_P2;PMS_P1;PMS_P2;Temp;Humidity;BMP_temperature;BMP_pressure;BME280_temperature;BME280_humidity;BME280_pressure;Samples;Min_cycle;Max_cycle;Signal;HPM_P1;HPM_P2
2022/09/07 00:01:06;;;;;;;2.10;1.40;;;23.90;85.40;;;;;;10014132;28;20554;-61
2022/09/07 00:05:57;;;;;;;5.55;1.35;;;23.90;86.00;;;;;;10015782;28;20026;-59
2022/09/07 00:10:59;;;;;;;2.28;1.02;;;24.00;86.20;;;;;;10016776;28;20144;-59
2022/09/07 00:15:50;;;;;;;2.90;1.35;;;24.10;86.70;;;;;;9998063;28;20022;-58
2022/09/07 00:20:42;;;;;;;3.03;1.17;;;24.00;87.20;;;;;;9998206;28;20049;-60
2022/09/07 00:25:38;;;;;;;4.20;1.30;;;24.00;87.50;;;;;;9996326;28;20077;-59
2022/09/07 00:30:29;;;;;;;4.43;1.80;;;24.00;88.00;;;;;;10009550;28;20104;-58
2022/09/07 00:35:20;;;;;;;2.65;1.20;;;23.90;88.50;;;;;;10010413;28;20258;-59
2022/09/07 00:40:11;;;;;;;4.13;1.23;;;24.00;89.10;;;;;;10013530;28;20472;-60
2022/09/07 00:45:18;;;;;;;2.78;1.38;;;24.00;89.60;;;;;;10013755;28;20500;-58
2022/09/07 00:50:39;;;;;;;2.50;1.23;;;24.00;89.90;;;;;;10013033;28;20436;-60
2022/09/07 00:55:32;;;;;;;4.50;1.00;;;23.90;90.50;;;;;;10012763;28;20029;-58
2022/09/07 01:00:23;;;;;;;2.67;1.10;;;23.60;90.90;;;;;;10013770;28;20343;-59
2022/09/07 01:05:25;;;;;;;4.07;1.90;;;23.70;91.10;;;;;;10008732;28;20026;-58
2022/09/07 01:10:15;;;;;;;1.20;0.85;;;23.80;91.00;;;;;;10011208;28;20080;-59
2022/09/07 01:15:07;;;;;;;3.15;1.30;;;23.80;91.40;;;;;;10012633;28;20405;-59
2022/09/07 01:20:10;;;;;;;4.70;1.58;;;23.80;91.40;;;;;;10012542;28;20485;-59
2022/09/07 01:25:11;;;;;;;1.83;1.08;;;23.80;91.60;;;;;;10012812;28;20103;-60
2022/09/07 01:30:08;;;;;;;2.13;1.25;;;23.70;91.60;;;;;;10013218;28;20034;-60
2022/09/07 01:35:02;;;;;;;2.78;1.20;;;23.70;92.00;;;;;;10007827;28;20026;-59
2022/09/07 01:40:03;;;;;;;0.95;0.80;;;23.80;92.10;;;;;;10012446;28;20228;-62
2022/09/07 01:45:02;;;;;;;3.75;0.77;;;23.70;92.30;;;;;;10008086;28;20030;-60
2022/09/07 01:49:57;;;;;;;1.63;0.85;;;23.80;92.50;;;;;;10012159;28;20037;-59
2022/09/07 01:54:57;;;;;;;3.45;1.70;;;23.90;92.60;;;;;;10010658;28;20037;-60
2022/09/07 02:00:09;;;;;;;4.78;2.08;;;24.00;92.60;;;;;;10011567;28;20555;-60
2022/09/07 02:05:10;;;;;;;1.67;1.05;;;23.90;92.80;;;;;;10005233;28;20026;-59
2022/09/07 02:10:17;;;;;;;2.22;1.10;;;23.80;93.00;;;;;;10012741;28;20111;-61
2022/09/07 02:15:21;;;;;;;3.53;1.65;;;23.80;93.00;;;;;;10010560;28;20108;-60
2022/09/07 02:20:20;;;;;;;1.63;1.10;;;23.70;93.30;;;;;;10012053;28;20088;-62
2022/09/07 02:25:18;;;;;;;1.45;0.70;;;23.60;93.40;;;;;;9994087;28;20033;-58
2022/09/07 02:30:09;;;;;;;2.80;1.40;;;23.70;93.50;;;;;;10007817;28;20029;-59
2022/09/07 02:35:00;;;;;;;5.53;1.00;;;23.60;93.70;;;;;;10011612;28;20026;-58
2022/09/07 02:39:51;;;;;;;2.40;0.95;;;23.50;93.80;;;;;;10011467;28;20062;-57
2022/09/07 02:44:45;;;;;;;2.90;1.13;;;23.50;93.90;;;;;;10016417;28;20399;-59
2022/09/07 02:50:00;;;;;;;2.80;1.02;;;23.40;94.10;;;;;;10018837;28;20029;-60
2022/09/07 02:55:15;;;;;;;2.88;1.25;;;23.50;94.20;;;;;;10014896;28;20019;-58
2022/09/07 03:00:10;;;;;;;2.40;1.08;;;23.50;94.10;;;;;;10010510;28;20583;-59
2022/09/07 03:05:31;;;;;;;2.53;1.10;;;23.40;94.30;;;;;;10010581;28;20116;-58
2022/09/07 03:10:23;;;;;;;7.93;2.05;;;23.30;94.50;;;;;;10012903;28;20084;-59
2022/09/07 03:15:17;;;;;;;2.55;1.60;;;23.40;94.70;;;;;;10018601;28;20044;-58
2022/09/07 03:20:08;;;;;;;5.47;1.42;;;23.40;94.70;;;;;;10017752;28;20072;-58
2022/09/07 03:24:59;;;;;;;5.78;1.60;;;23.50;94.80;;;;;;10017426;28;20017;-59
2022/09/07 03:29:49;;;;;;;3.45;1.17;;;23.40;95.00;;;;;;10017626;28;20029;-58
2022/09/07 03:34:40;;;;;;;2.13;1.48;;;23.40;95.00;;;;;;10016741;28;20034;-56
2022/09/07 03:39:31;;;;;;;4.15;1.67;;;23.20;95.40;;;;;;10015874;28;20563;-58
2022/09/07 03:44:21;;;;;;;2.92;1.80;;;23.20;95.40;;;;;;10016594;28;20415;-59
2022/09/07 03:49:13;;;;;;;2.63;1.30;;;23.30;95.40;;;;;;10016715;28;20028;-60
2022/09/07 03:54:04;;;;;;;2.50;2.00;;;23.10;95.70;;;;;;10009330;28;20030;-58
2022/09/07 03:58:55;;;;;;;3.15;1.60;;;22.90;95.80;;;;;;10016191;28;20026;-58
2022/09/07 04:03:46;;;;;;;3.40;1.70;;;22.80;96.10;;;;;;10016050;28;20030;-60
2022/09/07 04:08:40;;;;;;;3.20;1.30;;;22.80;96.20;;;;;;10011936;28;20030;-60
2022/09/07 04:13:33;;;;;;;2.45;1.35;;;22.70;96.30;;;;;;10011498;28;20021;-61
2022/09/07 04:18:24;;;;;;;1.48;1.25;;;22.50;96.50;;;;;;10015105;28;20025;-60
2022/09/07 04:23:15;;;;;;;1.65;1.27;;;22.50;96.60;;;;;;10013553;28;20174;-62
2022/09/07 04:28:06;;;;;;;5.28;2.35;;;22.50;96.70;;;;;;10014324;28;20526;-62
2022/09/07 04:32:57;;;;;;;1.75;1.15;;;22.30;97.00;;;;;;10014626;28;20231;-60
2022/09/07 04:37:47;;;;;;;2.10;1.20;;;22.20;97.30;;;;;;10013916;28;20050;-59
2022/09/07 04:42:38;;;;;;;1.27;1.00;;;22.20;97.30;;;;;;10014100;28;20034;-59
2022/09/07 04:47:31;;;;;;;3.80;1.40;;;22.00;97.80;;;;;;10013972;28;20983;-59
2022/09/07 04:52:23;;;;;;;2.80;1.38;;;22.10;97.80;;;;;;10014438;28;20627;-59
2022/09/07 04:57:13;;;;;;;2.97;1.40;;;22.10;97.80;;;;;;10013290;28;20116;-60
2022/09/07 05:02:04;;;;;;;2.83;1.83;;;22.10;97.90;;;;;;10013414;28;20123;-59
2022/09/07 05:06:55;;;;;;;3.60;1.70;;;22.20;98.00;;;;;;10011904;28;20104;-58
2022/09/07 05:11:45;;;;;;;4.85;1.50;;;22.10;97.90;;;;;;10014256;28;20030;-59
2022/09/07 05:16:36;;;;;;;4.53;1.50;;;22.20;98.10;;;;;;10009040;28;20026;-59
2022/09/07 05:21:29;;;;;;;3.72;1.60;;;22.30;97.90;;;;;;10013314;28;20037;-60
2022/09/07 05:26:22;;;;;;;2.95;1.20;;;22.30;98.10;;;;;;10012454;28;20037;-59
2022/09/07 05:31:15;;;;;;;1.77;1.17;;;22.30;98.20;;;;;;10010114;28;20034;-59
2022/09/07 05:36:07;;;;;;;6.15;1.52;;;22.40;98.20;;;;;;10007807;28;20029;-59
2022/09/07 05:40:58;;;;;;;2.22;1.58;;;22.40;98.30;;;;;;9994627;28;20049;-59
2022/09/07 05:45:48;;;;;;;3.78;2.25;;;22.30;98.20;;;;;;10011893;28;20397;-61
2022/09/07 05:50:49;;;;;;;3.78;1.70;;;22.30;98.50;;;;;;10012432;28;20157;-61
2022/09/07 05:55:40;;;;;;;3.38;1.60;;;22.50;98.30;;;;;;10011710;28;20256;-59
2022/09/07 06:00:30;;;;;;;4.78;1.70;;;22.60;98.20;;;;;;10011592;28;20596;-59
2022/09/07 06:05:21;;;;;;;4.00;1.38;;;22.40;98.30;;;;;;10011957;28;20493;-61
2022/09/07 06:10:12;;;;;;;3.22;1.85;;;22.50;98.40;;;;;;10011568;28;20507;-59
2022/09/07 06:15:04;;;;;;;3.35;1.90;;;22.50;98.30;;;;;;10005835;28;20029;-58
2022/09/07 06:19:55;;;;;;;5.15;1.98;;;22.60;98.30;;;;;;10014754;28;20386;-59
2022/09/07 06:24:46;;;;;;;3.15;1.75;;;22.80;98.40;;;;;;10018486;28;20099;-60
2022/09/07 06:29:37;;;;;;;3.33;2.22;;;22.90;98.20;;;;;;10011463;28;20582;-59
2022/09/07 06:34:27;;;;;;;5.45;2.22;;;22.80;98.20;;;;;;10007761;28;20053;-60
2022/09/07 06:39:18;;;;;;;5.47;1.95;;;22.90;98.20;;;;;;9998910;28;20408;-59
2022/09/07 06:44:09;;;;;;;4.72;1.63;;;23.00;98.20;;;;;;9994211;28;20026;-59
2022/09/07 06:49:00;;;;;;;5.85;1.95;;;23.20;98.10;;;;;;10001737;28;20077;-61
2022/09/07 06:53:55;;;;;;;5.35;2.20;;;23.20;98.00;;;;;;9988904;28;20111;-64
2022/09/07 06:58:46;;;;;;;8.82;2.67;;;23.30;98.00;;;;;;10013296;28;20688;-59
2022/09/07 07:03:37;;;;;;;2.85;1.50;;;23.40;98.00;;;;;;10009583;28;20316;-60
2022/09/07 07:08:27;;;;;;;6.03;1.77;;;23.60;97.80;;;;;;10006731;28;20026;-59
2022/09/07 07:13:18;;;;;;;4.35;1.98;;;23.70;97.70;;;;;;9981693;28;20019;-60
2022/09/07 07:18:09;;;;;;;4.25;2.60;;;23.80;97.70;;;;;;10014591;28;20048;-58
2022/09/07 07:23:00;;;;;;;3.60;1.73;;;23.80;97.70;;;;;;10017766;28;20077;-59
2022/09/07 07:27:51;;;;;;;6.30;2.38;;;23.90;97.50;;;;;;10020975;28;20022;-60
2022/09/07 07:32:42;;;;;;;9.38;2.38;;;23.70;97.70;;;;;;10006721;28;20038;-59
2022/09/07 07:37:35;;;;;;;4.68;2.30;;;23.70;97.60;;;;;;10014114;28;20045;-60
2022/09/07 07:42:26;;;;;;;4.60;1.98;;;23.90;97.50;;;;;;10025114;28;20049;-59
2022/09/07 07:47:16;;;;;;;4.22;1.73;;;24.00;97.40;;;;;;9999810;28;20038;-59
2022/09/07 07:52:07;;;;;;;4.75;1.52;;;24.00;97.40;;;;;;9988937;28;20100;-59
2022/09/07 07:56:58;;;;;;;3.60;1.92;;;24.20;97.20;;;;;;10012036;28;20030;-59
2022/09/07 08:01:48;;;;;;;3.83;2.38;;;24.20;97.20;;;;;;9996054;28;20061;-60
2022/09/07 08:06:41;;;;;;;5.40;2.08;;;24.30;97.10;;;;;;10007149;28;20025;-59
2022/09/07 08:11:34;;;;;;;3.28;1.77;;;24.30;97.10;;;;;;9997714;28;20034;-59
2022/09/07 08:16:24;;;;;;;6.72;2.70;;;24.50;97.00;;;;;;9997402;28;20351;-59
2022/09/07 08:21:16;;;;;;;5.43;3.22;;;24.70;96.80;;;;;;9983563;28;20085;-59
2022/09/07 08:26:07;;;;;;;8.07;2.50;;;24.60;96.90;;;;;;10008250;28;20022;-65
2022/09/07 08:30:58;;;;;;;4.80;2.60;;;24.90;96.60;;;;;;10004797;28;20586;-60
2022/09/07 08:36:00;;;;;;;4.50;2.20;;;25.00;96.50;;;;;;9995482;28;20101;-60
2022/09/07 08:40:51;;;;;;;3.17;1.50;;;25.00;96.40;;;;;;9994029;28;20127;-62
2022/09/07 08:45:49;;;;;;;5.10;1.88;;;25.10;96.30;;;;;;9986221;28;20532;-62
2022/09/07 08:50:46;;;;;;;6.70;2.10;;;25.20;96.10;;;;;;9986732;28;20056;-59
2022/09/07 08:55:47;;;;;;;8.15;3.63;;;25.40;96.00;;;;;;9996903;28;20014;-60
2022/09/07 09:00:38;;;;;;;5.50;2.00;;;25.50;95.80;;;;;;10004707;28;20052;-61
2022/09/07 09:06:00;;;;;;;4.03;1.45;;;25.60;95.70;;;;;;10006857;28;20261;-60
2022/09/07 09:10:56;;;;;;;2.97;1.52;;;25.60;95.50;;;;;;9997233;28;20108;-63
2022/09/07 09:16:08;;;;;;;4.43;2.00;;;25.70;95.50;;;;;;9992018;28;20254;-60
2022/09/07 09:21:00;;;;;;;7.22;1.92;;;25.70;95.50;;;;;;9978384;28;20041;-60
2022/09/07 09:26:00;;;;;;;3.03;1.52;;;25.90;95.30;;;;;;10000479;28;20548;-61
2022/09/07 09:30:50;;;;;;;3.55;1.67;;;25.90;95.20;;;;;;10001582;28;20072;-62
2022/09/07 09:35:44;;;;;;;3.10;1.60;;;25.90;95.20;;;;;;9996423;28;20045;-61
2022/09/07 09:40:36;;;;;;;4.78;2.15;;;25.90;95.00;;;;;;9981350;28;20447;-61
2022/09/07 09:45:31;;;;;;;2.08;1.52;;;26.00;94.80;;;;;;9996495;28;20015;-62
2022/09/07 09:50:49;;;;;;;4.88;1.60;;;26.00;94.80;;;;;;9984755;28;20423;-60
2022/09/07 09:55:41;;;;;;;5.07;2.13;;;26.10;94.50;;;;;;10012236;28;20030;-61
2022/09/07 10:00:33;;;;;;;5.15;1.50;;;26.40;94.40;;;;;;10012872;28;20404;-62
2022/09/07 10:05:35;;;;;;;3.45;1.73;;;26.30;94.30;;;;;;10020400;28;20464;-61
2022/09/07 10:10:27;;;;;;;3.03;1.60;;;26.40;94.20;;;;;;10020529;28;20032;-61
2022/09/07 10:15:48;;;;;;;5.10;1.88;;;26.60;94.10;;;;;;10000072;28;20522;-63
2022/09/07 10:20:39;;;;;;;6.93;1.85;;;26.60;94.10;;;;;;9982472;28;20052;-61
2022/09/07 10:25:44;;;;;;;4.90;1.92;;;26.90;93.90;;;;;;10007864;28;20027;-61
2022/09/07 10:30:53;;;;;;;6.60;3.03;;;27.00;93.80;;;;;;10004195;28;20373;-60
2022/09/07 10:35:58;;;;;;;3.92;1.77;;;26.90;93.70;;;;;;10003407;28;20025;-62
2022/09/07 10:41:00;;;;;;;4.03;2.13;;;27.10;93.60;;;;;;10013493;28;20092;-62
2022/09/07 10:46:15;;;;;;;4.32;2.00;;;27.40;93.30;;;;;;10014075;28;20437;-62
2022/09/07 10:51:31;;;;;;;9.23;2.08;;;27.60;93.10;;;;;;10016206;28;20508;-60
2022/09/07 10:56:26;;;;;;;3.33;1.77;;;27.80;92.90;;;;;;10016696;28;20523;-62
2022/09/07 11:01:30;;;;;;;3.10;1.50;;;27.80;92.90;;;;;;10017583;28;20095;-62
2022/09/07 11:06:33;;;;;;;3.40;1.42;;;28.10;92.40;;;;;;10017540;28;20036;-61
2022/09/07 11:11:55;;;;;;;2.05;1.17;;;28.20;92.20;;;;;;10016109;28;20029;-62
2022/09/07 11:17:00;;;;;;;3.58;1.67;;;28.20;91.90;;;;;;10013099;28;20174;-61
2022/09/07 11:22:18;;;;;;;2.80;1.60;;;28.30;91.20;;;;;;10015940;28;20101;-61
2022/09/07 11:27:17;;;;;;;2.85;1.52;;;28.40;91.20;;;;;;10002390;28;20033;-61
2022/09/07 11:32:26;;;;;;;1.95;1.52;;;28.40;91.10;;;;;;10016575;28;20041;-61
2022/09/07 11:37:59;;;;;;;4.32;1.58;;;28.50;90.70;;;;;;10016355;28;20285;-61
2022/09/07 11:43:17;;;;;;;4.10;1.52;;;28.30;90.30;;;;;;9928296;28;20049;-61
2022/09/07 11:48:23;;;;;;;2.00;1.60;;;28.30;90.00;;;;;;10016075;28;20025;-61
2022/09/07 11:53:25;;;;;;;3.90;1.85;;;28.20;90.00;;;;;;10007044;28;20025;-62
2022/09/07 11:58:54;;;;;;;4.03;1.55;;;28.20;89.70;;;;;;10004089;28;20038;-61
2022/09/07 12:04:10;;;;;;;1.92;1.42;;;28.10;88.90;;;;;;9915374;28;20042;-63
2022/09/07 12:09:19;;;;;;;2.80;2.17;;;28.00;88.70;;;;;;10013655;28;20061;-62
2022/09/07 12:14:47;;;;;;;2.58;1.30;;;28.20;88.40;;;;;;10011245;28;20049;-62
2022/09/07 12:19:38;;;;;;;4.45;1.38;;;28.70;87.70;;;;;;10006429;28;20427;-61
2022/09/07 12:24:35;;;;;;;3.67;1.50;;;29.00;87.30;;;;;;9996443;28;20026;-62
2022/09/07 12:29:28;;;;;;;3.08;1.50;;;29.30;86.50;;;;;;10014327;28;20026;-62
2022/09/07 12:34:30;;;;;;;2.47;1.40;;;29.60;86.50;;;;;;9999999;28;20509;-62
2022/09/07 12:39:31;;;;;;;2.45;1.40;;;29.80;86.00;;;;;;10183894;27;20375;-61
2022/09/07 12:44:24;;;;;;;2.38;1.38;;;29.70;86.20;;;;;;10164659;28;20028;-59
2022/09/07 12:49:35;;;;;;;2.53;1.33;;;29.50;86.30;;;;;;10165828;28;20123;-59
2022/09/07 12:54:31;;;;;;;3.38;2.03;;;29.00;86.10;;;;;;10144403;28;20020;-63
2022/09/07 12:59:47;;;;;;;2.67;1.55;;;28.60;85.80;;;;;;10160554;28;20272;-63
2022/09/07 13:05:09;;;;;;;2.35;1.35;;;28.20;85.60;;;;;;10163347;28;20021;-60
2022/09/07 13:10:02;;;;;;;3.75;1.63;;;28.10;85.20;;;;;;10162952;28;20039;-61
2022/09/07 13:14:54;;;;;;;2.85;1.52;;;27.70;85.30;;;;;;10147717;28;20047;-60
2022/09/07 13:19:45;;;;;;;3.90;1.42;;;27.40;85.90;;;;;;10166560;28;20043;-61
2022/09/07 13:24:51;;;;;;;3.58;1.52;;;27.30;86.30;;;;;;10166060;28;20028;-59
2022/09/07 13:29:46;;;;;;;2.72;1.33;;;27.30;86.50;;;;;;10146717;28;20040;-59
2022/09/07 13:34:39;;;;;;;2.28;1.40;;;27.20;86.60;;;;;;10163779;28;20044;-59
2022/09/07 13:39:39;;;;;;;4.88;2.47;;;27.10;86.60;;;;;;10118529;28;20039;-60
2022/09/07 13:44:32;;;;;;;2.58;1.35;;;27.10;87.00;;;;;;10123118;28;20440;-62
2022/09/07 13:49:29;;;;;;;2.30;1.35;;;27.30;86.80;;;;;;10103686;28;20079;-60
2022/09/07 13:54:34;;;;;;;2.95;1.42;;;27.70;86.70;;;;;;10092134;28;20435;-60
2022/09/07 13:59:27;;;;;;;4.57;1.65;;;27.90;86.30;;;;;;10094104;28;20404;-61
2022/09/07 14:04:32;;;;;;;4.75;1.23;;;27.90;86.20;;;;;;10094911;28;20021;-60
2022/09/07 14:09:23;;;;;;;3.72;1.40;;;28.20;85.60;;;;;;10092960;28;20060;-61
2022/09/07 14:14:21;;;;;;;5.28;1.67;;;28.10;85.50;;;;;;10088093;28;20025;-60
2022/09/07 14:19:38;;;;;;;2.55;1.25;;;29.00;84.70;;;;;;10088980;28;20037;-60
2022/09/07 14:24:56;;;;;;;3.97;1.35;;;29.30;83.90;;;;;;10093474;28;20075;-61
2022/09/07 14:29:47;;;;;;;4.22;1.33;;;29.30;83.30;;;;;;10089960;28;20487;-60
2022/09/07 14:34:38;;;;;;;4.05;1.38;;;29.00;83.60;;;;;;10094995;28;20265;-61
2022/09/07 14:39:33;;;;;;;2.78;1.02;;;28.90;83.40;;;;;;10094044;28;20217;-60
2022/09/07 14:44:39;;;;;;;2.72;1.40;;;28.70;83.20;;;;;;10091444;28;20102;-63
2022/09/07 14:49:30;;;;;;;2.95;1.65;;;28.20;83.60;;;;;;10093766;28;20041;-62
2022/09/07 14:54:27;;;;;;;2.17;1.30;;;27.90;83.50;;;;;;10092626;28;20495;-63
2022/09/07 14:59:34;;;;;;;3.30;1.70;;;27.50;83.30;;;;;;10089466;28;20043;-63
2022/09/07 15:04:27;;;;;;;3.72;1.40;;;27.20;82.70;;;;;;10091745;28;20037;-62
2022/09/07 15:09:36;;;;;;;2.67;1.20;;;27.10;82.80;;;;;;10089975;28;20017;-62
2022/09/07 15:14:27;;;;;;;2.22;1.35;;;26.80;82.90;;;;;;10082686;28;20028;-61
2022/09/07 15:19:17;;;;;;;3.50;1.80;;;26.60;83.20;;;;;;10081459;28;20341;-59
2022/09/07 15:24:09;;;;;;;5.05;2.03;;;26.20;83.80;;;;;;10093291;28;20510;-62
2022/09/07 15:28:59;;;;;;;2.78;1.48;;;26.00;84.30;;;;;;10075872;28;20041;-61
2022/09/07 15:33:50;;;;;;;1.30;1.20;;;25.80;84.70;;;;;;10093399;28;20446;-60
2022/09/07 15:38:41;;;;;;;2.47;0.90;;;25.70;85.20;;;;;;10084900;28;20055;-62
2022/09/07 15:43:32;;;;;;;1.52;0.80;;;25.80;85.30;;;;;;10089094;28;20071;-62
2022/09/07 15:48:23;;;;;;;3.42;1.00;;;25.70;85.60;;;;;;10091378;28;20522;-61
2022/09/07 15:53:15;;;;;;;1.75;1.00;;;25.20;86.50;;;;;;10093576;28;20105;-62
2022/09/07 15:58:06;;;;;;;1.92;1.10;;;25.00;87.00;;;;;;10088149;28;20432;-60
2022/09/07 16:02:57;;;;;;;2.22;1.20;;;25.20;86.30;;;;;;10087035;28;20373;-61
2022/09/07 16:07:47;;;;;;;2.30;1.00;;;25.20;85.40;;;;;;10083948;28;20036;-61
2022/09/07 16:12:39;;;;;;;4.03;1.10;;;25.20;84.80;;;;;;10088699;28;20075;-61
2022/09/07 16:17:31;;;;;;;2.28;0.95;;;25.20;84.30;;;;;;10090705;28;20120;-62
2022/09/07 16:22:21;;;;;;;2.95;1.20;;;25.30;83.90;;;;;;10092442;28;20541;-61
2022/09/07 16:27:12;;;;;;;4.93;1.27;;;25.20;84.60;;;;;;10093217;28;20029;-61
2022/09/07 16:32:03;;;;;;;1.67;1.30;;;25.10;85.00;;;;;;10087355;28;20063;-62
2022/09/07 16:36:54;;;;;;;3.78;0.93;;;25.20;85.30;;;;;;10090967;28;20045;-62
2022/09/07 16:41:44;;;;;;;2.75;1.63;;;25.20;85.40;;;;;;10093585;28;20090;-61
2022/09/07 16:46:36;;;;;;;6.50;2.78;;;24.60;85.60;;;;;;10083337;28;20029;-60
2022/09/07 16:51:27;;;;;;;5.72;2.22;;;22.80;90.40;;;;;;10093166;28;20107;-62
2022/09/07 16:56:20;;;;;;;4.72;2.10;;;22.20;92.10;;;;;;10092797;28;20484;-61
2022/09/07 17:01:14;;;;;;;4.15;1.83;;;22.30;93.20;;;;;;10087365;28;20029;-62
2022/09/07 17:06:07;;;;;;;2.63;1.77;;;22.50;93.90;;;;;;10091859;28;20727;-60
2022/09/07 17:11:02;;;;;;;7.80;3.05;;;22.70;94.40;;;;;;10087795;28;20040;-62
2022/09/07 17:15:53;;;;;;;7.47;4.03;;;23.00;95.00;;;;;;10084653;28;20033;-63
2022/09/07 17:20:54;;;;;;;5.20;1.90;;;22.90;95.40;;;;;;10089858;28;20112;-60
2022/09/07 17:25:44;;;;;;;5.72;1.95;;;22.90;96.20;;;;;;10094675;28;20017;-60
2022/09/07 17:30:35;;;;;;;3.45;1.50;;;23.00;96.50;;;;;;10096860;28;20078;-61
2022/09/07 17:35:25;;;;;;;3.95;1.67;;;23.00;97.20;;;;;;10095741;28;20056;-61
2022/09/07 17:40:16;;;;;;;3.22;1.85;;;22.90;97.90;;;;;;10094081;28;20235;-60
2022/09/07 17:45:07;;;;;;;4.22;2.13;;;22.80;98.20;;;;;;10092439;28;20056;-63
2022/09/07 17:49:58;;;;;;;4.35;2.10;;;22.90;98.40;;;;;;10097462;28;20020;-62
2022/09/07 17:54:48;;;;;;;6.65;4.35;;;22.90;98.60;;;;;;10092655;28;20090;-61
2022/09/07 17:59:40;;;;;;;6.28;4.22;;;23.10;98.50;;;;;;10097571;28;20021;-60
2022/09/07 18:04:31;;;;;;;5.30;1.95;;;23.10;98.60;;;;;;10094535;28;20108;-60
2022/09/07 18:09:21;;;;;;;7.35;2.55;;;23.10;98.80;;;;;;10095889;28;20162;-60
2022/09/07 18:14:13;;;;;;;4.65;2.40;;;23.20;98.80;;;;;;10093981;28;20033;-61
2022/09/07 18:19:08;;;;;;;4.60;2.47;;;23.10;98.90;;;;;;10097851;28;20033;-61
2022/09/07 18:24:03;;;;;;;2.90;1.92;;;23.10;99.20;;;;;;10098616;28;20075;-61
2022/09/07 18:28:55;;;;;;;2.75;1.77;;;22.90;99.60;;;;;;10096404;28;20079;-60
2022/09/07 18:33:46;;;;;;;3.72;2.85;;;22.80;99.70;;;;;;10089116;28;20044;-61
2022/09/07 18:38:37;;;;;;;6.88;3.63;;;22.70;99.90;;;;;;10093665;28;20053;-64
2022/09/07 18:43:29;;;;;;;3.65;2.35;;;22.80;99.80;;;;;;10095738;28;20529;-60
2022/09/07 18:48:20;;;;;;;5.40;3.20;;;22.80;99.90;;;;;;10096316;28;20449;-60
2022/09/07 18:53:10;;;;;;;5.68;2.28;;;22.70;99.90;;;;;;10095392;28;20083;-61
2022/09/07 18:58:01;;;;;;;4.20;3.70;;;22.80;99.90;;;;;;10095431;28;20033;-60
2022/09/07 19:02:52;;;;;;;4.35;2.20;;;22.70;99.90;;;;;;10095440;28;20078;-61
2022/09/07 19:07:43;;;;;;;7.47;2.50;;;22.70;99.90;;;;;;10073905;28;20112;-61
2022/09/07 19:12:34;;;;;;;5.95;3.10;;;22.70;99.90;;;;;;10067471;28;20126;-60
2022/09/07 19:17:25;;;;;;;4.78;2.60;;;22.60;99.90;;;;;;10089095;28;20050;-62
2022/09/07 19:22:15;;;;;;;2.92;1.98;;;22.60;99.90;;;;;;10093784;28;20041;-61
2022/09/07 19:27:06;;;;;;;5.40;2.22;;;22.60;99.90;;;;;;10093433;28;20013;-60
2022/09/07 19:32:03;;;;;;;6.43;2.78;;;22.60;99.90;;;;;;10087124;28;20029;-61
2022/09/07 19:36:53;;;;;;;6.22;2.20;;;22.50;99.90;;;;;;10087347;28;20053;-61
2022/09/07 19:41:44;;;;;;;5.78;2.47;;;22.50;99.90;;;;;;10094727;28;20633;-59
2022/09/07 19:46:34;;;;;;;6.18;3.35;;;22.40;99.90;;;;;;10093092;28;20029;-60
2022/09/07 19:51:25;;;;;;;6.53;3.03;;;22.40;99.90;;;;;;10093109;28;20112;-60
2022/09/07 19:56:20;;;;;;;3.28;2.08;;;22.40;99.90;;;;;;10093233;28;20032;-60
2022/09/07 20:01:12;;;;;;;;;;;22.50;99.90;;;;;;10088046;28;20488;-61
2022/09/07 20:06:08;;;;;;;3.63;3.00;;;22.40;99.90;;;;;;10090859;28;19913;-60
2022/09/07 20:11:01;;;;;;;3.03;1.88;;;22.50;99.90;;;;;;10092979;28;20038;-61
2022/09/07 20:15:51;;;;;;;3.35;2.28;;;22.60;99.90;;;;;;10084749;28;20029;-60
2022/09/07 20:20:42;;;;;;;2.78;2.08;;;22.60;99.90;;;;;;10091675;28;20037;-61
2022/09/07 20:25:32;;;;;;;4.05;2.25;;;22.80;99.90;;;;;;10087305;28;20399;-62
2022/09/07 20:30:23;;;;;;;2.67;1.90;;;22.70;99.90;;;;;;10092698;28;20025;-62
2022/09/07 20:35:14;;;;;;;2.55;1.40;;;22.70;99.90;;;;;;10089869;28;20044;-63
2022/09/07 20:40:05;;;;;;;2.58;1.63;;;22.70;99.90;;;;;;10086736;28;20115;-62
2022/09/07 20:44:56;;;;;;;3.72;1.75;;;22.90;99.90;;;;;;10094441;28;20060;-62
2022/09/07 20:49:47;;;;;;;2.25;1.70;;;22.70;99.90;;;;;;10092966;28;20029;-61
2022/09/07 20:54:37;;;;;;;3.28;1.85;;;22.40;99.90;;;;;;10092314;28;20025;-60
2022/09/07 20:59:28;;;;;;;4.03;1.92;;;22.20;99.90;;;;;;10096860;28;20037;-60
2022/09/07 21:04:19;;;;;;;4.57;2.47;;;21.90;99.90;;;;;;10087768;28;20017;-60
2022/09/07 21:09:09;;;;;;;4.18;2.35;;;21.70;99.90;;;;;;10090439;28;20036;-59
2022/09/07 21:14:01;;;;;;;3.50;2.22;;;21.60;99.90;;;;;;10099253;28;20035;-60
2022/09/07 21:18:56;;;;;;;6.47;2.85;;;21.50;99.90;;;;;;10081397;28;20345;-60
2022/09/07 21:23:47;;;;;;;5.72;2.20;;;21.40;99.90;;;;;;10099495;28;20013;-61
2022/09/07 21:28:38;;;;;;;7.28;2.03;;;21.40;99.90;;;;;;10099085;28;20032;-59
2022/09/07 21:33:30;;;;;;;2.95;1.75;;;21.30;99.90;;;;;;10098521;28;20388;-60
2022/09/07 21:38:21;;;;;;;4.22;1.90;;;21.30;99.90;;;;;;10120127;28;20080;-60
2022/09/07 21:43:12;;;;;;;2.88;1.70;;;21.20;99.90;;;;;;10139206;28;20017;-63
2022/09/07 21:48:03;;;;;;;3.72;2.47;;;20.90;99.90;;;;;;10138664;28;20035;-59
2022/09/07 21:52:53;;;;;;;2.00;1.55;;;20.80;99.90;;;;;;10137764;28;20601;-62
2022/09/07 21:57:44;;;;;;;2.28;1.52;;;20.90;99.90;;;;;;10138032;28;20028;-61
2022/09/07 22:02:35;;;;;;;3.17;1.85;;;20.90;99.90;;;;;;10131827;28;20243;-60
2022/09/07 22:07:25;;;;;;;5.15;1.83;;;20.80;99.90;;;;;;10132627;28;20089;-60
2022/09/07 22:12:16;;;;;;;4.50;1.83;;;20.90;99.90;;;;;;10136350;28;20082;-60
2022/09/07 22:17:07;;;;;;;2.47;1.55;;;21.20;99.90;;;;;;10137101;28;20628;-60
2022/09/07 22:21:57;;;;;;;6.13;2.13;;;21.10;99.90;;;;;;10135172;28;20029;-60
2022/09/07 22:26:48;;;;;;;3.45;1.50;;;20.90;99.90;;;;;;10135682;28;20031;-61
2022/09/07 22:31:39;;;;;;;3.08;1.65;;;20.90;99.90;;;;;;10131625;28;20021;-62
2022/09/07 22:36:33;;;;;;;2.65;1.88;;;20.70;99.90;;;;;;10128989;28;20528;-61
2022/09/07 22:41:29;;;;;;;3.35;1.40;;;20.70;99.90;;;;;;10116774;28;20029;-65
2022/09/07 22:46:22;;;;;;;4.97;2.55;;;20.90;99.90;;;;;;10135711;28;20032;-63
2022/09/07 22:51:14;;;;;;;8.05;2.08;;;20.90;99.90;;;;;;10135675;28;20063;-63
2022/09/07 22:56:13;;;;;;;3.83;1.30;;;20.80;99.90;;;;;;10136169;28;20498;-63
2022/09/07 23:01:05;;;;;;;1.70;1.17;;;20.50;99.90;;;;;;10135288;28;20021;-63
2022/09/07 23:05:56;;;;;;;2.58;1.35;;;20.50;99.90;;;;;;10135476;28;20510;-62
2022/09/07 23:10:46;;;;;;;3.15;1.23;;;20.50;99.90;;;;;;10116756;28;20024;-62
2022/09/07 23:15:37;;;;;;;2.00;1.30;;;20.80;99.90;;;;;;10134141;28;20033;-62
2022/09/07 23:20:28;;;;;;;2.65;1.63;;;20.70;99.90;;;;;;10134259;28;20032;-62
2022/09/07 23:25:19;;;;;;;2.03;1.08;;;20.70;99.90;;;;;;10134224;28;20409;-63
2022/09/07 23:30:10;;;;;;;1.75;1.20;;;20.80;99.90;;;;;;10133967;28;20020;-65
2022/09/07 23:35:02;;;;;;;2.10;1.45;;;20.90;99.90;;;;;;10134023;28;20489;-62
2022/09/07 23:39:53;;;;;;;4.25;1.70;;;21.00;99.90;;;;;;10135959;28;20035;-65
2022/09/07 23:44:47;;;;;;;2.33;1.20;;;21.10;99.90;;;;;;10134898;28;20028;-63
2022/09/07 23:49:37;;;;;;;1.20;1.10;;;21.00;99.90;;;;;;10134056;28;20081;-63
2022/09/07 23:54:28;;;;;;;2.08;1.15;;;21.10;99.90;;;;;;10133358;28;20081;-64
2022/09/07 23:59:19;;;;;;;1.88;1.42;;;21.10;99.90;;;;;;10134337;28;20093;-63
